Decoded Metar for KMAO (MARION in SC, USA) (IATA:MAO) | Meteo·Mobile Aviation Weather
aviador You're here:

KMAO Decoded Metar

MARION in SC, USA
Report Time2019-02-23 00:35:00
UTC Time2019-02-23 00:50:28
Flight Rules ifr IFR
Wind040° at 12 Gusting to 15 kt
W.Decomp.*RWY 04: 11.9 kt HW 1.3 kt RCW
W.Rank040° ranks 7
Current wind is above 040° avg. (6.5)
Visibility9999 m
Phenomena:N/A
Clouds:Overcast 009 Hf
Expected CloudBase > 400 ft AGL from Temp-Dew spread
Ceiling900 ft
Temp08°C (ISA -7)
Dew Point07°C (93% RH)
AAT3.0°C
QNH1027 hPa
Density Alt-1,066 ft
Elevation92 ft
Report Wrong Elevation
Raw Report
KMAO 230035Z AUTO 04012G15KT 10SM OVC009 08/07 A3033 RMK AO2=

Extra information for KMAO:More info

Metar Taf Metar & Taf Last 4 Metars F.Rules Stats Wind Profile Meteogram Temp Stats Airport Information Weather charts Add Link Nearby VenuesMetar ALERT Operation Metar Decoded Social comments

AIRNAV info for KMAO